Portada
METAR-TAF:

METAR-TAF

Aeropuertos :

Aeropuerto de Kangerlussuaq

Kangerlussuaq, Groenlandia

latitud: 67-01N, longitud: 050-42W, altitud: 50 m

Observación

El informe se hizo hace 43 minutos, a las 17:50 UTC
Viento 7 kt del noreste
Temperatura -16°C
Humedad 78%
Presión 999 hPa
Visibilidad 10 km o más
(leve) Cinarra

METAR: BGSF 271750Z AUTO 05007KT 9999NDV -SG FEW034/// BKN039/// OVC044/// M16/M19 Q0999

Hora: 15:33 (18:33 UTC)

Pronóstico

El informe se hizo hace 1 hora y 38 minutos, a las 16:55 UTC
Pronóstico válido del 27 a las 18 UTC al 27 a las 24 UTC
Viento 5 kt del este-noreste
Visibilidad 10 km o más
Cielo nuboso a una altura de 4000 ft
Temporalmente
del 27 a las 18 UTC al 27 a las 24 UTC
Visibilidad: 4000 m
Cielo nuboso a una altura de 3500 ft
poca nieve

TAF: BGSF 271655Z 2718/2724 06005KT 9999 BKN040 TEMPO 2718/2724 4000 -SN BKN035

Observaciones y pronósticos meteorológicos de más de 4000 aeropuertos (mensajes METAR y TAF).

Los puntos amarillos y rojos representan las estaciones disponibles.

Ponga el ratón en el punto deseado para ver el nombre de la estación.

Haga clic para ver las observaciones y los pronósticos meteorológicos.

Para cambiar el mapa : haga clic en los botones verdes con una cruz de color negro para hacer un zoom, en el botón verde con un guión para alejar o en las flechas verdes para mapas adyacentes.


METAR-TAF: